West Burlington, New York
Current Conditions -  °F | °C
As of 5:39 AM on Friday 21 Nov 2014 (Local Time) from KRME Reporting Station
Light Snow Light Snow  
Wind Chill: 12°   Ceiling: 1500
Heat Index: 20°   Visibility: 1.5mi
Dew Point: 19°   Wind: 6mph
Humidity: 96%   Direction: 260°W
Pressure: 30.09"   Gusts: NA
Location:  42.71°N, 75.19°W
Report Text: KRME 211039Z AUTO 26005KT 1 1/2SM -SN BR OVC015 M07/M07 A3009 RMK AO2 P0002 T10671072
Loading
Personal Weather Stations






























Interactive Weather Map New forecast layout! Learn more

10-Day Weather Forecast

Advertisements
Track Severe Weather on mobile